Terminal Aerodrome Forecast
Issued by NWS

Home | Current Version | Previous Version | Text Only | Print | Product List | Glossary On
Versions: 1 2 3 4 5 6 7 8 9 10 11 12 13 14 15 16 17
633
FTUS42 KTBW 201725
TAFRSW
TAF
KRSW 201725Z 2018/2118 10007KT P6SM FEW050
     FM202100 28004KT P6SM FEW100
     FM210300 00000KT P6SM SCT045
     FM211500 11008KT P6SM FEW250=

USA.gov is the U.S. government's official web portal to all federal, state and local government web resources and services.